Time;durP1;ratioP1;P1;durP2;ratioP2;P2;SDS_P1;SDS_P2;PMS_P1;PMS_P2;Temp;Humidity;BMP_temperature;BMP_pressure;BME280_temperature;BME280_humidity;BME280_pressure;Samples;Min_cycle;Max_cycle;Signal;HPM_P1;HPM_P2
2024/01/02 00:01:55;;;;;;;68.18;42.10;;;12.00;99.90;;;;;;4953272;29;20389;-80
2024/01/02 00:04:25;;;;;;;63.03;38.83;;;11.90;99.90;;;;;;4953058;29;20499;-82
2024/01/02 00:06:52;;;;;;;67.13;40.85;;;11.90;99.90;;;;;;4952856;28;20476;-80
2024/01/02 00:09:18;;;;;;;62.92;39.67;;;11.90;99.90;;;;;;4953457;29;20041;-79
2024/01/02 00:11:45;;;;;;;64.72;41.22;;;11.90;99.90;;;;;;4953313;29;20032;-80
2024/01/02 00:14:11;;;;;;;60.03;38.00;;;11.90;99.90;;;;;;4953063;29;20122;-80
2024/01/02 00:16:38;;;;;;;69.10;39.65;;;11.90;99.90;;;;;;4953157;28;20051;-79
2024/01/02 00:19:04;;;;;;;62.45;39.15;;;11.90;99.90;;;;;;4953349;29;20459;-83
2024/01/02 00:21:31;;;;;;;67.00;40.80;;;11.90;99.90;;;;;;4952963;29;20488;-78
2024/01/02 00:23:59;;;;;;;76.80;40.97;;;11.90;99.90;;;;;;4957042;28;20023;-82
2024/01/02 00:26:25;;;;;;;63.92;40.85;;;11.90;99.90;;;;;;4952253;28;20073;-82
2024/01/02 00:28:51;;;;;;;61.33;38.90;;;11.90;99.90;;;;;;4940494;29;20023;-82
2024/01/02 00:31:18;;;;;;;67.35;41.40;;;11.90;99.90;;;;;;4940909;29;20035;-82
2024/01/02 00:33:44;;;;;;;67.22;39.67;;;11.90;99.90;;;;;;4957698;28;20102;-80
2024/01/02 00:36:11;;;;;;;63.58;41.00;;;11.90;99.90;;;;;;4957618;28;20027;-83
2024/01/02 00:38:38;;;;;;;66.38;39.70;;;11.90;99.90;;;;;;4940246;29;20031;-82
2024/01/02 00:41:08;;;;;;;61.17;39.38;;;11.90;99.90;;;;;;4956583;29;20032;-82
2024/01/02 00:43:35;;;;;;;64.72;39.40;;;11.90;99.90;;;;;;4956791;29;20024;-82
2024/01/02 00:46:02;;;;;;;60.90;39.40;;;11.90;99.90;;;;;;4957537;28;20039;-81
2024/01/02 00:48:30;;;;;;;62.83;38.55;;;11.90;99.90;;;;;;4954288;29;20436;-81
2024/01/02 00:50:56;;;;;;;67.25;39.53;;;11.90;99.90;;;;;;4956868;29;20031;-82
2024/01/02 00:53:29;;;;;;;60.17;37.97;;;11.90;99.90;;;;;;4956909;29;20102;-81
2024/01/02 00:55:55;;;;;;;62.10;38.22;;;11.90;99.90;;;;;;4956451;29;20038;-81
2024/01/02 00:58:22;;;;;;;60.67;39.75;;;12.00;99.90;;;;;;4956228;29;20082;-82
2024/01/02 01:00:48;;;;;;;60.33;38.45;;;12.00;99.90;;;;;;4956444;29;20551;-81
2024/01/02 01:03:15;;;;;;;58.97;37.60;;;12.00;99.90;;;;;;4956505;29;20027;-82
2024/01/02 01:05:41;;;;;;;60.63;37.42;;;12.10;99.90;;;;;;4956205;29;20043;-82
2024/01/02 01:08:08;;;;;;;59.47;38.40;;;12.10;99.90;;;;;;4956074;28;20023;-82
2024/01/02 01:10:34;;;;;;;65.05;38.88;;;12.10;99.90;;;;;;4956217;29;20031;-81
2024/01/02 01:13:01;;;;;;;62.38;38.97;;;12.10;99.90;;;;;;4956400;29;20023;-82
2024/01/02 01:15:27;;;;;;;63.63;38.15;;;12.20;99.90;;;;;;4982509;28;20132;-81
2024/01/02 01:17:54;;;;;;;60.97;38.30;;;12.20;99.90;;;;;;4994127;28;20026;-82
2024/01/02 01:20:21;;;;;;;59.67;38.03;;;12.20;99.90;;;;;;4966589;28;20031;-80
2024/01/02 01:22:47;;;;;;;61.00;36.80;;;12.20;99.90;;;;;;4960203;28;20030;-82
2024/01/02 01:25:14;;;;;;;53.92;33.90;;;12.20;99.90;;;;;;4945909;28;20541;-82
2024/01/02 01:27:41;;;;;;;48.67;33.90;;;12.20;99.90;;;;;;4959180;28;20066;-82
2024/01/02 01:30:08;;;;;;;54.33;35.03;;;12.20;99.90;;;;;;4959009;28;20035;-82
2024/01/02 01:32:35;;;;;;;55.83;36.83;;;12.20;99.90;;;;;;4976415;28;20473;-82
2024/01/02 01:35:03;;;;;;;59.42;37.90;;;12.20;99.90;;;;;;4969964;28;20030;-80
2024/01/02 01:37:30;;;;;;;59.92;38.00;;;12.30;99.90;;;;;;4962189;28;20022;-82
2024/01/02 01:39:57;;;;;;;60.80;38.15;;;12.30;99.90;;;;;;4962257;28;20117;-81
2024/01/02 01:42:24;;;;;;;63.45;38.63;;;12.30;99.90;;;;;;4977983;28;20030;-82
2024/01/02 01:44:50;;;;;;;60.72;36.53;;;12.30;99.90;;;;;;4977425;28;20146;-82
2024/01/02 01:47:17;;;;;;;57.90;36.55;;;12.30;99.90;;;;;;4981179;28;20059;-82
2024/01/02 01:49:44;;;;;;;66.60;39.75;;;12.30;99.90;;;;;;4958500;28;20133;-82
2024/01/02 01:52:12;;;;;;;55.00;37.17;;;12.30;99.90;;;;;;4958895;28;20109;-81
2024/01/02 01:54:39;;;;;;;60.70;38.60;;;12.30;99.90;;;;;;4966781;28;20030;-82
2024/01/02 01:57:05;;;;;;;67.50;40.63;;;12.30;99.90;;;;;;4978021;28;20080;-83
2024/01/02 01:59:33;;;;;;;66.63;39.92;;;12.30;99.90;;;;;;4977982;28;20077;-82
2024/01/02 02:02:00;;;;;;;62.70;39.30;;;12.30;99.90;;;;;;4977811;28;20031;-82
2024/01/02 02:04:29;;;;;;;63.58;40.10;;;12.30;99.90;;;;;;4977081;28;20061;-82
2024/01/02 02:06:56;;;;;;;63.92;39.55;;;12.30;99.90;;;;;;4977984;28;20073;-82
2024/01/02 02:09:22;;;;;;;55.38;35.58;;;12.30;99.90;;;;;;4995227;28;20038;-82
2024/01/02 02:11:49;;;;;;;58.67;36.25;;;12.30;99.90;;;;;;4977710;28;20026;-82
2024/01/02 02:14:15;;;;;;;56.75;37.13;;;12.30;99.90;;;;;;4965044;28;20094;-82
2024/01/02 02:16:43;;;;;;;55.17;36.90;;;12.40;99.90;;;;;;4974063;28;20031;-83
2024/01/02 02:19:10;;;;;;;57.40;36.65;;;12.40;99.90;;;;;;4958266;28;20476;-83
2024/01/02 02:21:37;;;;;;;58.90;36.33;;;12.40;99.90;;;;;;4958300;28;20479;-82
2024/01/02 02:24:04;;;;;;;59.50;36.30;;;12.50;99.90;;;;;;4968674;28;20035;-82
2024/01/02 02:26:30;;;;;;;54.08;34.45;;;12.50;99.90;;;;;;4920016;29;20031;-83
2024/01/02 02:28:57;;;;;;;49.63;34.05;;;12.60;99.90;;;;;;4919983;29;20032;-83
2024/01/02 02:31:23;;;;;;;53.95;34.72;;;12.60;99.90;;;;;;4935755;29;20031;-83
2024/01/02 02:33:49;;;;;;;46.47;34.22;;;12.70;99.90;;;;;;4935416;29;20548;-81
2024/01/02 02:36:16;;;;;;;52.58;33.28;;;12.70;99.90;;;;;;4971185;28;20536;-82
2024/01/02 02:38:42;;;;;;;48.70;33.75;;;12.70;99.90;;;;;;4973400;28;20026;-82
2024/01/02 02:41:09;;;;;;;51.45;34.15;;;12.70;99.90;;;;;;4937534;28;20512;-82
2024/01/02 02:43:35;;;;;;;46.13;33.28;;;12.80;99.90;;;;;;4937019;29;20031;-82
2024/01/02 02:46:02;;;;;;;48.55;32.83;;;12.80;99.90;;;;;;4960047;28;20028;-82
2024/01/02 02:48:28;;;;;;;47.38;33.95;;;12.90;99.90;;;;;;4956035;29;20479;-82
2024/01/02 02:50:55;;;;;;;42.72;32.78;;;12.90;99.90;;;;;;4956184;28;20027;-82
2024/01/02 02:53:21;;;;;;;53.03;33.95;;;12.90;99.90;;;;;;4954401;29;20034;-82
2024/01/02 02:55:48;;;;;;;56.67;34.97;;;13.00;99.90;;;;;;4932703;29;20016;-82
2024/01/02 02:58:16;;;;;;;49.60;33.55;;;13.00;99.90;;;;;;4970625;28;20074;-82
2024/01/02 03:00:46;;;;;;;45.22;33.47;;;13.00;99.90;;;;;;4954414;29;20027;-82
2024/01/02 03:03:12;;;;;;;46.75;33.08;;;13.00;99.90;;;;;;4954309;29;20023;-81
2024/01/02 03:05:38;;;;;;;46.72;32.85;;;13.00;99.90;;;;;;4943504;28;20035;-81
2024/01/02 03:08:05;;;;;;;45.63;33.42;;;13.00;99.90;;;;;;4935400;29;20112;-81
2024/01/02 03:10:31;;;;;;;47.45;32.45;;;13.00;99.90;;;;;;4934901;29;20031;-82
2024/01/02 03:12:58;;;;;;;41.17;32.75;;;13.00;99.90;;;;;;4936569;29;20047;-82
2024/01/02 03:15:24;;;;;;;42.92;32.25;;;12.90;99.90;;;;;;4949363;28;20046;-83
2024/01/02 03:17:50;;;;;;;49.55;31.05;;;12.90;99.90;;;;;;4955476;29;20059;-82
2024/01/02 03:20:17;;;;;;;41.83;31.35;;;12.90;99.90;;;;;;4954126;28;20061;-82
2024/01/02 03:22:43;;;;;;;41.00;30.15;;;12.90;99.90;;;;;;4955429;28;20027;-82
2024/01/02 03:25:10;;;;;;;41.80;31.20;;;12.80;99.90;;;;;;4953763;29;20066;-82
2024/01/02 03:27:36;;;;;;;35.97;29.92;;;12.80;99.90;;;;;;4938107;29;20066;-82
2024/01/02 03:30:03;;;;;;;40.90;30.08;;;12.70;99.90;;;;;;4954468;28;20027;-82
2024/01/02 03:32:30;;;;;;;39.83;29.88;;;12.70;99.90;;;;;;4954980;28;20035;-82
2024/01/02 03:34:57;;;;;;;40.40;31.05;;;12.60;99.90;;;;;;4955045;29;20024;-82
2024/01/02 03:37:23;;;;;;;37.63;30.60;;;12.60;99.90;;;;;;4954265;29;20580;-82
2024/01/02 03:39:50;;;;;;;39.25;29.27;;;12.50;99.90;;;;;;4955286;29;20033;-82
2024/01/02 03:42:16;;;;;;;41.42;29.85;;;12.50;99.90;;;;;;4954036;28;20028;-82
2024/01/02 03:44:42;;;;;;;43.58;30.90;;;12.40;99.90;;;;;;4954039;29;20035;-82
2024/01/02 03:47:09;;;;;;;43.53;30.80;;;12.30;99.90;;;;;;4954060;29;20137;-82
2024/01/02 03:49:35;;;;;;;39.85;30.83;;;12.30;99.90;;;;;;4953600;29;20023;-82
2024/01/02 03:52:02;;;;;;;39.45;30.50;;;12.30;99.90;;;;;;4953467;29;20040;-82
2024/01/02 03:54:28;;;;;;;45.55;31.27;;;12.30;99.90;;;;;;4953789;29;20023;-82
2024/01/02 03:56:54;;;;;;;41.83;31.83;;;12.30;99.90;;;;;;4954014;28;20074;-82
2024/01/02 03:59:21;;;;;;;47.13;32.78;;;12.30;99.90;;;;;;4956662;29;20484;-82
2024/01/02 04:01:47;;;;;;;46.33;31.50;;;12.30;99.90;;;;;;4958658;29;20039;-82
2024/01/02 04:04:14;;;;;;;47.80;32.90;;;12.30;99.90;;;;;;4941642;29;20150;-81
2024/01/02 04:06:41;;;;;;;52.88;34.20;;;12.30;99.90;;;;;;4941811;29;20049;-83
2024/01/02 04:09:08;;;;;;;49.25;34.42;;;12.40;99.90;;;;;;4957323;29;20023;-84
2024/01/02 04:11:37;;;;;;;48.47;32.97;;;12.40;99.90;;;;;;4957789;29;20102;-84
2024/01/02 04:14:04;;;;;;;47.60;34.10;;;12.40;99.90;;;;;;4961767;28;20046;-85
2024/01/02 04:16:31;;;;;;;56.30;34.20;;;12.40;99.90;;;;;;4961306;28;20070;-84
2024/01/02 04:18:58;;;;;;;54.65;35.13;;;12.40;99.90;;;;;;4973034;28;20046;-83
2024/01/02 04:21:24;;;;;;;48.08;34.95;;;12.40;99.90;;;;;;4941443;29;20529;-82
2024/01/02 04:23:51;;;;;;;56.08;35.45;;;12.40;99.90;;;;;;4957137;28;20485;-82
2024/01/02 04:26:24;;;;;;;54.08;35.47;;;12.40;99.90;;;;;;4970824;28;20428;-82
2024/01/02 04:28:50;;;;;;;51.50;35.70;;;12.40;99.90;;;;;;4975754;28;20038;-82
2024/01/02 04:31:17;;;;;;;44.72;34.38;;;12.40;99.90;;;;;;4977135;28;20022;-84
2024/01/02 04:33:44;;;;;;;61.53;37.90;;;12.40;99.90;;;;;;4976905;28;20023;-83
2024/01/02 04:36:10;;;;;;;54.45;35.42;;;12.50;99.90;;;;;;4960245;28;20122;-82
2024/01/02 04:38:37;;;;;;;54.95;37.83;;;12.50;99.90;;;;;;4975439;28;20023;-84
2024/01/02 04:41:06;;;;;;;49.38;36.13;;;12.40;99.90;;;;;;4940883;29;20056;-83
2024/01/02 04:43:33;;;;;;;51.65;36.20;;;12.40;99.90;;;;;;4941080;29;20038;-83
2024/01/02 04:46:00;;;;;;;50.50;35.67;;;12.40;99.90;;;;;;4956383;28;20035;-82
2024/01/02 04:48:26;;;;;;;56.25;36.90;;;12.30;99.90;;;;;;4989909;28;20042;-82
2024/01/02 04:50:53;;;;;;;51.25;36.83;;;12.30;99.90;;;;;;4958194;28;20027;-83
2024/01/02 04:53:19;;;;;;;52.47;34.75;;;12.20;99.90;;;;;;4940596;29;20027;-82
2024/01/02 04:55:46;;;;;;;51.72;35.20;;;12.20;99.90;;;;;;4952733;28;20031;-81
2024/01/02 04:58:13;;;;;;;51.55;36.05;;;12.20;99.90;;;;;;4972704;28;20028;-82
2024/01/02 05:00:39;;;;;;;47.05;34.20;;;12.20;99.90;;;;;;4969174;28;20516;-82
2024/01/02 05:03:05;;;;;;;40.60;32.85;;;12.10;99.90;;;;;;4940419;29;20035;-82
2024/01/02 05:05:32;;;;;;;47.08;33.78;;;12.10;99.90;;;;;;4948349;28;20037;-86
2024/01/02 05:07:59;;;;;;;44.88;33.38;;;12.10;99.90;;;;;;4972587;28;20031;-83
2024/01/02 05:10:25;;;;;;;50.55;34.50;;;12.10;99.90;;;;;;4970967;28;20034;-83
2024/01/02 05:12:52;;;;;;;40.72;32.42;;;12.10;99.90;;;;;;4956256;29;20035;-82
2024/01/02 05:15:19;;;;;;;47.75;32.97;;;12.10;99.90;;;;;;4961121;28;20073;-83
2024/01/02 05:17:45;;;;;;;37.53;31.00;;;12.10;99.90;;;;;;4975874;28;20094;-82
2024/01/02 05:20:12;;;;;;;41.25;32.75;;;12.10;99.90;;;;;;4958815;28;20023;-82
2024/01/02 05:22:42;;;;;;;42.58;31.98;;;12.10;99.90;;;;;;4975396;28;20157;-80
2024/01/02 05:25:09;;;;;;;36.75;29.80;;;12.10;99.90;;;;;;4974588;28;20046;-82
2024/01/02 05:27:35;;;;;;;36.50;30.55;;;12.10;99.90;;;;;;4959215;28;20032;-82
2024/01/02 05:30:02;;;;;;;36.58;29.33;;;12.10;99.90;;;;;;4974725;28;20424;-84
2024/01/02 05:32:28;;;;;;;35.67;29.50;;;12.10;99.90;;;;;;4975869;28;20034;-85
2024/01/02 05:34:55;;;;;;;35.75;30.15;;;12.10;99.90;;;;;;4976016;28;20034;-85
2024/01/02 05:37:21;;;;;;;36.15;28.08;;;12.10;99.90;;;;;;4975749;28;20033;-84
2024/01/02 05:39:48;;;;;;;32.63;28.88;;;12.10;99.90;;;;;;4967637;28;20031;-83
2024/01/02 05:42:19;;;;;;;30.83;27.00;;;12.10;99.90;;;;;;4956267;29;20118;-82
2024/01/02 05:44:48;;;;;;;;;;;12.10;99.90;;;;;;4957947;28;20054;-82
2024/01/02 05:47:17;;;;;;;33.13;26.83;;;12.20;99.90;;;;;;4959035;28;19906;-80
2024/01/02 05:49:44;;;;;;;33.40;27.23;;;12.20;99.90;;;;;;4975506;28;20121;-80
2024/01/02 05:52:11;;;;;;;32.92;27.75;;;12.20;99.90;;;;;;4974908;28;20023;-82
2024/01/02 05:54:37;;;;;;;33.22;27.25;;;12.20;99.90;;;;;;4974912;28;20063;-83
2024/01/02 05:57:04;;;;;;;42.50;28.98;;;12.10;99.90;;;;;;4974845;28;20054;-82
2024/01/02 05:59:30;;;;;;;37.80;27.58;;;12.10;99.90;;;;;;4973548;28;20394;-82
2024/01/02 06:01:57;;;;;;;36.75;28.17;;;12.10;99.90;;;;;;4939503;29;20050;-82
2024/01/02 06:04:26;;;;;;;32.25;26.10;;;12.10;99.90;;;;;;4939371;29;20120;-82
2024/01/02 06:06:53;;;;;;;33.95;27.02;;;12.10;99.90;;;;;;4972378;28;20034;-82
2024/01/02 06:09:24;;;;;;;37.45;27.17;;;12.10;99.90;;;;;;4993200;28;20121;-82
2024/01/02 06:11:50;;;;;;;31.45;26.17;;;12.00;99.90;;;;;;4975411;28;20487;-82
2024/01/02 06:14:18;;;;;;;37.17;27.00;;;12.00;99.90;;;;;;4973480;28;20439;-82
2024/01/02 06:16:44;;;;;;;39.30;27.30;;;12.00;99.90;;;;;;4985922;28;20034;-82
2024/01/02 06:19:11;;;;;;;34.38;26.42;;;12.00;99.90;;;;;;4960598;28;20126;-82
2024/01/02 06:21:38;;;;;;;28.75;25.63;;;12.00;99.90;;;;;;4980155;28;20081;-82
2024/01/02 06:24:04;;;;;;;37.88;26.30;;;12.00;99.90;;;;;;4976484;28;20030;-83
2024/01/02 06:26:31;;;;;;;34.63;26.90;;;12.00;99.90;;;;;;4976592;28;20034;-83
2024/01/02 06:28:57;;;;;;;29.48;26.27;;;12.00;99.90;;;;;;4975816;28;20026;-83
2024/01/02 06:31:24;;;;;;;36.55;26.75;;;12.00;99.90;;;;;;4992745;28;20046;-83
2024/01/02 06:33:51;;;;;;;31.65;25.58;;;12.10;99.90;;;;;;4960446;28;20077;-82
2024/01/02 06:36:17;;;;;;;36.38;26.83;;;12.10;99.90;;;;;;4976155;28;20038;-82
2024/01/02 06:38:44;;;;;;;34.83;27.15;;;12.20;99.90;;;;;;4972374;28;20449;-82
2024/01/02 06:41:10;;;;;;;32.20;26.83;;;12.20;99.90;;;;;;4976478;28;20031;-82
2024/01/02 06:43:39;;;;;;;33.33;25.92;;;12.30;99.90;;;;;;4960169;28;20027;-82
2024/01/02 06:46:06;;;;;;;37.03;27.48;;;12.30;99.90;;;;;;4971655;28;20381;-82
2024/01/02 06:48:32;;;;;;;31.92;27.15;;;12.40;99.90;;;;;;4956301;28;20023;-83
2024/01/02 06:50:58;;;;;;;37.88;27.75;;;12.40;99.90;;;;;;4954869;29;20058;-82
2024/01/02 06:53:25;;;;;;;32.50;25.88;;;12.40;99.90;;;;;;4954733;28;20027;-82
2024/01/02 06:55:52;;;;;;;35.63;26.88;;;12.50;99.90;;;;;;4963885;28;20038;-82
2024/01/02 06:58:19;;;;;;;31.55;25.77;;;12.50;99.90;;;;;;4973836;28;20019;-82
2024/01/02 07:00:48;;;;;;;27.42;24.65;;;12.50;99.90;;;;;;4938842;29;20477;-83
2024/01/02 07:03:14;;;;;;;27.70;24.10;;;12.60;99.90;;;;;;4954332;28;20036;-82
2024/01/02 07:05:47;;;;;;;31.73;23.35;;;12.60;99.90;;;;;;4960919;28;20035;-82
2024/01/02 07:08:14;;;;;;;29.08;23.02;;;12.70;99.90;;;;;;4974859;28;20121;-82
2024/01/02 07:10:40;;;;;;;25.52;21.90;;;12.60;99.90;;;;;;4974876;28;20037;-83
2024/01/02 07:13:07;;;;;;;21.08;18.90;;;12.70;99.90;;;;;;4973550;28;20037;-82
2024/01/02 07:15:34;;;;;;;24.27;20.55;;;12.70;99.90;;;;;;4989802;28;20073;-83
2024/01/02 07:18:01;;;;;;;22.67;20.38;;;12.80;99.90;;;;;;4976990;28;20030;-83
2024/01/02 07:20:27;;;;;;;30.40;22.42;;;12.70;99.90;;;;;;4976837;28;20026;-82
2024/01/02 07:23:18;;;;;;;24.55;21.92;;;12.60;99.90;;;;;;4976879;28;20053;-82
2024/01/02 07:25:44;;;;;;;24.33;21.70;;;12.50;99.90;;;;;;4976040;28;20046;-83
2024/01/02 07:28:11;;;;;;;22.88;19.92;;;12.60;99.90;;;;;;4976919;28;20046;-82
2024/01/02 07:30:38;;;;;;;19.90;17.85;;;12.70;99.90;;;;;;4984086;28;20039;-83
2024/01/02 07:33:05;;;;;;;21.13;17.08;;;12.80;99.90;;;;;;4958551;28;20027;-83
2024/01/02 07:35:32;;;;;;;21.48;17.90;;;13.00;99.90;;;;;;4969757;28;20027;-83
2024/01/02 07:38:02;;;;;;;22.70;18.50;;;13.20;99.90;;;;;;4980504;28;20110;-83
2024/01/02 07:40:29;;;;;;;21.25;19.08;;;13.50;99.90;;;;;;4980472;28;20042;-83
2024/01/02 07:42:58;;;;;;;21.63;19.73;;;13.60;99.90;;;;;;4964673;28;20395;-83
2024/01/02 07:45:25;;;;;;;27.50;22.60;;;13.80;99.90;;;;;;4979493;28;20038;-83
2024/01/02 07:47:52;;;;;;;25.17;22.95;;;13.90;99.90;;;;;;4965782;28;20031;-83
2024/01/02 07:50:19;;;;;;;23.92;21.55;;;14.00;99.90;;;;;;4961010;28;20089;-83
2024/01/02 07:52:47;;;;;;;23.48;20.98;;;14.10;99.90;;;;;;4978171;28;20101;-82
2024/01/02 07:55:14;;;;;;;22.08;20.08;;;14.10;99.90;;;;;;4969700;28;20026;-83
2024/01/02 07:57:40;;;;;;;21.42;19.30;;;14.10;99.90;;;;;;4980059;28;20436;-82
2024/01/02 08:00:07;;;;;;;20.70;18.85;;;14.20;99.90;;;;;;4980174;28;20030;-83
2024/01/02 08:02:38;;;;;;;21.35;19.55;;;14.30;99.90;;;;;;4980899;28;20483;-83
2024/01/02 08:05:06;;;;;;;19.88;18.27;;;14.30;99.90;;;;;;4979507;28;20049;-82
2024/01/02 08:07:32;;;;;;;20.25;18.45;;;14.40;99.90;;;;;;4963865;28;20023;-83
2024/01/02 08:09:59;;;;;;;20.05;18.52;;;14.60;99.90;;;;;;4979318;28;20038;-82
2024/01/02 08:12:25;;;;;;;20.17;18.52;;;14.60;99.90;;;;;;4963778;28;20374;-82
2024/01/02 08:14:52;;;;;;;21.10;19.08;;;14.60;99.90;;;;;;4976398;28;20051;-82
2024/01/02 08:17:23;;;;;;;20.63;19.02;;;14.80;99.90;;;;;;4957133;28;20031;-83
2024/01/02 08:19:52;;;;;;;22.55;20.25;;;14.80;99.90;;;;;;4962802;28;20504;-83
2024/01/02 08:22:19;;;;;;;21.27;19.60;;;14.80;99.90;;;;;;4941416;29;20495;-82
2024/01/02 08:24:46;;;;;;;21.70;20.00;;;14.80;99.90;;;;;;4989252;28;20035;-82
2024/01/02 08:27:13;;;;;;;20.23;18.58;;;14.80;99.90;;;;;;4976472;28;20118;-83
2024/01/02 08:29:40;;;;;;;20.95;19.15;;;14.80;99.90;;;;;;4975772;28;20031;-83
2024/01/02 08:32:06;;;;;;;21.15;19.08;;;14.80;99.90;;;;;;4960244;28;20058;-81
2024/01/02 08:34:34;;;;;;;21.08;19.20;;;14.90;99.90;;;;;;4976111;28;20488;-82
2024/01/02 08:37:00;;;;;;;21.40;19.63;;;14.90;99.90;;;;;;4975679;28;20035;-81
2024/01/02 08:39:26;;;;;;;23.10;20.15;;;15.00;99.90;;;;;;4975377;28;20054;-82
2024/01/02 08:41:53;;;;;;;21.85;20.10;;;15.00;99.90;;;;;;4975235;28;20476;-82
2024/01/02 08:44:19;;;;;;;21.75;19.98;;;15.00;99.90;;;;;;4975489;28;20092;-83
2024/01/02 08:46:47;;;;;;;21.77;20.27;;;14.90;99.90;;;;;;4968658;28;20024;-81
2024/01/02 08:49:15;;;;;;;22.23;20.25;;;14.90;99.90;;;;;;4940634;29;20031;-82
2024/01/02 08:51:45;;;;;;;22.13;20.42;;;14.90;99.90;;;;;;4956662;29;20027;-82
2024/01/02 08:54:12;;;;;;;22.08;20.33;;;15.00;99.90;;;;;;4960971;28;20023;-82
2024/01/02 08:56:39;;;;;;;22.15;20.48;;;15.00;99.90;;;;;;4959031;28;20126;-81
2024/01/02 08:59:06;;;;;;;22.75;20.67;;;15.10;99.90;;;;;;4977087;28;20027;-83
2024/01/02 09:01:32;;;;;;;22.75;20.73;;;15.20;99.90;;;;;;4974142;28;20128;-82
2024/01/02 09:04:00;;;;;;;23.08;21.55;;;15.20;99.90;;;;;;4975920;28;20547;-82
2024/01/02 09:06:29;;;;;;;24.05;22.00;;;15.20;99.90;;;;;;4975039;28;20035;-81
2024/01/02 09:08:57;;;;;;;22.90;21.00;;;15.20;99.90;;;;;;4971923;28;20054;-81
2024/01/02 09:11:24;;;;;;;22.38;20.88;;;15.30;99.90;;;;;;4957421;28;20054;-81
2024/01/02 09:13:50;;;;;;;22.48;20.58;;;15.30;99.90;;;;;;4941883;28;20023;-81
2024/01/02 09:16:17;;;;;;;24.23;21.67;;;15.30;99.90;;;;;;4968866;28;20042;-82
2024/01/02 09:18:44;;;;;;;23.38;21.77;;;15.40;99.90;;;;;;4995439;28;20038;-81
2024/01/02 09:21:10;;;;;;;23.85;21.77;;;15.40;99.90;;;;;;4995903;28;20033;-81
2024/01/02 09:23:36;;;;;;;23.85;21.75;;;15.40;99.90;;;;;;4996025;28;20031;-81
2024/01/02 09:26:07;;;;;;;23.60;21.70;;;15.60;99.90;;;;;;4959003;28;20034;-82
2024/01/02 09:28:36;;;;;;;24.58;22.60;;;15.60;99.90;;;;;;4959215;28;20027;-82
2024/01/02 09:31:04;;;;;;;24.23;22.55;;;15.60;99.90;;;;;;4959321;28;20065;-85
2024/01/02 09:33:30;;;;;;;24.33;22.55;;;15.60;99.90;;;;;;4959409;28;20557;-84
2024/01/02 09:35:57;;;;;;;24.55;22.58;;;15.70;99.90;;;;;;4966065;28;20022;-83
2024/01/02 09:38:23;;;;;;;24.33;22.42;;;15.70;99.90;;;;;;4978404;28;20479;-82
2024/01/02 09:41:14;;;;;;;23.33;21.67;;;15.60;99.90;;;;;;4977648;28;20034;-81
2024/01/02 09:44:23;;;;;;;24.02;22.13;;;15.60;99.90;;;;;;4977943;28;20036;-81
2024/01/02 09:47:13;;;;;;;23.42;21.73;;;15.70;99.90;;;;;;4946383;28;20407;-81
2024/01/02 09:50:05;;;;;;;23.33;21.77;;;15.70;99.90;;;;;;4977491;28;20058;-82
2024/01/02 09:52:50;;;;;;;23.63;21.45;;;15.90;99.90;;;;;;4977886;28;20019;-80
2024/01/02 09:55:24;;;;;;;23.88;21.63;;;15.70;99.90;;;;;;4994350;28;20029;-81
2024/01/02 09:58:09;;;;;;;24.13;21.83;;;15.90;99.90;;;;;;4991667;28;20380;-81
2024/01/02 10:01:05;;;;;;;22.52;20.80;;;16.30;99.90;;;;;;4994520;28;20033;-78
2024/01/02 10:03:57;;;;;;;21.63;19.98;;;16.30;99.90;;;;;;4993645;28;20037;-80
2024/01/02 10:07:02;;;;;;;21.02;19.73;;;16.10;99.90;;;;;;4994284;28;20487;-82
2024/01/02 10:09:47;;;;;;;21.58;20.05;;;16.10;99.90;;;;;;4977875;28;20042;-85
2024/01/02 10:12:37;;;;;;;21.05;19.55;;;16.00;99.90;;;;;;4994179;28;20492;-81
2024/01/02 10:15:18;;;;;;;22.23;20.17;;;15.90;99.90;;;;;;4973949;28;20055;-81
2024/01/02 10:17:53;;;;;;;20.95;19.55;;;15.90;99.90;;;;;;4957494;28;20039;-81
2024/01/02 10:20:37;;;;;;;21.52;19.85;;;16.00;99.90;;;;;;4974268;28;20117;-82
2024/01/02 10:23:40;;;;;;;20.80;19.30;;;15.90;99.90;;;;;;4974196;28;20031;-82
2024/01/02 10:26:09;;;;;;;21.45;19.83;;;15.70;99.90;;;;;;4973911;28;20129;-83
2024/01/02 10:28:37;;;;;;;21.23;19.60;;;15.70;99.90;;;;;;4974300;28;20476;-82
2024/01/02 10:31:25;;;;;;;21.52;19.92;;;15.80;99.90;;;;;;4974357;28;20440;-83
2024/01/02 10:34:03;;;;;;;20.75;19.35;;;15.80;99.90;;;;;;4970956;28;20038;-89
2024/01/02 10:36:37;;;;;;;21.50;19.90;;;16.00;99.90;;;;;;4974841;28;20484;-90
2024/01/02 10:39:20;;;;;;;;;;;16.10;99.90;;;;;;4958997;28;20038;-84
2024/01/02 10:41:47;;;;;;;21.77;19.85;;;16.10;99.90;;;;;;4974507;28;19918;-84
2024/01/02 10:44:38;;;;;;;22.15;20.27;;;16.00;99.90;;;;;;4957475;28;20027;-84
2024/01/02 10:47:45;;;;;;;21.10;19.58;;;16.00;99.90;;;;;;4963145;28;20039;-90
2024/01/02 10:50:19;;;;;;;21.63;20.13;;;16.00;99.90;;;;;;4953088;28;20042;-90
2024/01/02 10:53:03;;;;;;;21.45;20.05;;;16.10;99.90;;;;;;4958204;28;20089;-91
2024/01/02 10:55:49;;;;;;;20.97;19.20;;;16.10;99.90;;;;;;4974716;28;20135;-88
2024/01/02 10:58:33;;;;;;;21.00;19.55;;;16.10;99.90;;;;;;4974653;28;20286;-89
2024/01/02 11:01:09;;;;;;;21.27;19.58;;;16.20;99.90;;;;;;4974644;28;20113;-90
2024/01/02 11:04:07;;;;;;;22.30;20.52;;;16.20;99.90;;;;;;4974424;28;20033;-90
2024/01/02 11:06:58;;;;;;;21.73;20.08;;;16.10;99.90;;;;;;4972618;28;20054;-92
2024/01/02 11:09:48;;;;;;;21.30;19.52;;;15.90;99.90;;;;;;4962420;28;20027;-91
2024/01/02 11:12:18;;;;;;;21.17;19.42;;;15.70;99.90;;;;;;4939791;29;20051;-90
2024/01/02 11:14:46;;;;;;;20.98;19.35;;;15.80;99.90;;;;;;4938847;29;20106;-90
2024/01/02 11:17:15;;;;;;;22.08;20.40;;;15.80;99.90;;;;;;4955122;29;20062;-90
2024/01/02 11:19:55;;;;;;;22.00;20.20;;;15.80;99.90;;;;;;4954830;29;20067;-88
2024/01/02 11:22:55;;;;;;;23.25;20.67;;;16.00;99.90;;;;;;4955071;29;20074;-89
2024/01/02 11:25:28;;;;;;;22.70;20.45;;;16.20;99.90;;;;;;4954092;29;20066;-89
2024/01/02 11:27:56;;;;;;;23.27;21.38;;;16.40;99.90;;;;;;4955264;29;20034;-88
2024/01/02 11:30:34;;;;;;;22.85;21.13;;;16.50;99.90;;;;;;4954911;29;20031;-88
2024/01/02 11:33:16;;;;;;;23.42;21.38;;;16.60;99.90;;;;;;4955041;29;20477;-89
2024/01/02 11:36:02;;;;;;;24.15;22.20;;;16.70;99.90;;;;;;4955004;29;20034;-88
2024/01/02 11:38:39;;;;;;;23.08;21.27;;;16.70;99.90;;;;;;4954750;29;20070;-89
2024/01/02 11:41:34;;;;;;;24.42;22.20;;;16.70;99.90;;;;;;4935775;29;20027;-90
2024/01/02 11:44:22;;;;;;;24.33;22.58;;;16.90;99.90;;;;;;4953726;29;20046;-90
2024/01/02 11:46:56;;;;;;;24.58;22.67;;;17.10;99.90;;;;;;4955014;29;20074;-89
2024/01/02 11:49:24;;;;;;;24.27;22.50;;;17.10;99.90;;;;;;4956182;29;20027;-89
2024/01/02 11:51:57;;;;;;;22.92;21.42;;;16.80;99.90;;;;;;4954726;29;20488;-88
2024/01/02 11:54:26;;;;;;;23.15;21.33;;;16.50;99.90;;;;;;4954890;29;20035;-89
2024/01/02 11:56:53;;;;;;;22.33;20.80;;;16.20;99.90;;;;;;4954946;29;20114;-89
2024/01/02 11:59:38;;;;;;;22.50;20.98;;;16.00;99.90;;;;;;4955408;29;20032;-89
2024/01/02 12:02:19;;;;;;;;;;;15.80;99.90;;;;;;4955809;29;20039;-89
2024/01/02 12:05:10;;;;;;;22.90;20.90;;;15.80;99.90;;;;;;4955061;29;19914;-88
2024/01/02 12:07:41;;;;;;;23.30;21.38;;;15.90;99.90;;;;;;4955196;29;20087;-89
2024/01/02 12:10:08;;;;;;;24.45;22.15;;;16.00;99.90;;;;;;4955364;29;20030;-89
2024/01/02 12:13:02;;;;;;;25.95;23.67;;;16.20;99.90;;;;;;4955235;29;20027;-90
2024/01/02 12:15:55;;;;;;;24.10;22.45;;;16.40;99.90;;;;;;4969637;28;20043;-89
2024/01/02 12:18:30;;;;;;;25.27;23.27;;;16.40;99.90;;;;;;4975057;28;20050;-90
2024/01/02 12:21:09;;;;;;;24.30;22.60;;;16.40;99.90;;;;;;4964477;28;20117;-90
2024/01/02 12:23:39;;;;;;;24.15;22.45;;;16.50;99.90;;;;;;4942908;29;20118;-90
2024/01/02 12:26:06;;;;;;;25.33;23.38;;;16.50;99.90;;;;;;4956483;28;20519;-91
2024/01/02 12:28:35;;;;;;;24.63;22.80;;;16.50;99.90;;;;;;4963550;28;20034;-90
2024/01/02 12:31:26;;;;;;;24.27;22.33;;;16.50;99.90;;;;;;4977781;28;20026;-89
2024/01/02 12:34:14;;;;;;;23.88;22.27;;;16.40;99.90;;;;;;4941896;29;20043;-89
2024/01/02 12:37:17;;;;;;;25.77;23.33;;;16.50;99.90;;;;;;4951905;28;20027;-87
2024/01/02 12:39:48;;;;;;;28.77;25.85;;;16.60;99.90;;;;;;4946009;28;20138;-88
2024/01/02 12:42:21;;;;;;;24.33;22.55;;;16.70;99.90;;;;;;4977235;28;20034;-90
2024/01/02 12:44:55;;;;;;;26.27;24.20;;;16.60;99.90;;;;;;4976942;28;20038;-90